createdAt,value
2022-11-26T00:02:26.044Z,2.33
2022-11-26T00:04:55.683Z,2.33
2022-11-26T00:07:29.987Z,2.33
2022-11-26T00:09:59.507Z,2.30
2022-11-26T00:12:31.949Z,2.28
2022-11-26T00:15:16.517Z,2.28
2022-11-26T00:17:43.826Z,2.27
2022-11-26T00:20:11.188Z,2.34
2022-11-26T00:22:49.054Z,2.38
2022-11-26T00:25:25.876Z,2.47
2022-11-26T00:27:56.144Z,2.57
2022-11-26T00:30:27.449Z,2.48
2022-11-26T00:32:56.235Z,2.59
2022-11-26T00:35:24.457Z,2.49
2022-11-26T00:37:58.052Z,2.45
2022-11-26T00:40:33.814Z,2.39
2022-11-26T00:43:02.025Z,2.36
2022-11-26T00:45:31.419Z,2.20
2022-11-26T00:47:58.824Z,2.04
2022-11-26T00:50:32.994Z,2.09
2022-11-26T00:53:00.206Z,2.08
2022-11-26T00:55:39.513Z,2.04
2022-11-26T00:58:26.549Z,2.22
2022-11-26T01:00:56.964Z,2.29
2022-11-26T01:03:24.615Z,2.28
2022-11-26T01:05:55.770Z,2.29
2022-11-26T01:08:35.098Z,2.23
2022-11-26T01:11:05.726Z,2.23
2022-11-26T01:13:33.548Z,2.18
2022-11-26T01:16:01.615Z,2.09
2022-11-26T01:18:36.128Z,2.02
2022-11-26T01:21:03.357Z,2.07
2022-11-26T01:23:30.528Z,2.04
2022-11-26T01:25:58.996Z,2.09
2022-11-26T01:28:28.603Z,2.22
2022-11-26T01:30:55.760Z,2.31
2022-11-26T01:33:22.990Z,2.22
2022-11-26T01:35:50.185Z,2.11
2022-11-26T01:38:17.436Z,1.95
2022-11-26T01:40:58.864Z,1.86
2022-11-26T01:43:45.372Z,1.83
2022-11-26T01:46:19.756Z,1.77
2022-11-26T01:48:49.658Z,1.90
2022-11-26T01:51:29.217Z,1.97
2022-11-26T01:54:00.785Z,1.96
2022-11-26T01:56:39.316Z,2.03
2022-11-26T01:59:32.672Z,1.84
2022-11-26T02:02:00.876Z,1.84
2022-11-26T02:04:38.660Z,1.93
2022-11-26T02:07:06.585Z,1.76
2022-11-26T02:09:34.065Z,1.79
2022-11-26T02:12:01.518Z,1.66
2022-11-26T02:14:42.547Z,1.54
2022-11-26T02:17:24.588Z,1.65
2022-11-26T02:20:50.957Z,1.67
2022-11-26T02:24:04.188Z,1.62
2022-11-26T02:27:22.910Z,1.67
2022-11-26T02:30:12.252Z,1.72
2022-11-26T02:33:30.863Z,1.49
2022-11-26T02:36:09.947Z,1.41
2022-11-26T02:38:39.426Z,1.37
2022-11-26T02:41:06.705Z,1.26
2022-11-26T02:43:36.374Z,1.36
2022-11-26T02:46:12.964Z,1.43
2022-11-26T02:48:46.952Z,1.27
2022-11-26T02:51:29.475Z,1.16
2022-11-26T02:54:00.733Z,1.35
2022-11-26T02:56:29.978Z,1.50
2022-11-26T02:58:58.077Z,1.59
2022-11-26T03:01:37.432Z,1.71
2022-11-26T03:04:17.072Z,1.42
2022-11-26T03:06:46.056Z,1.46
2022-11-26T03:09:16.461Z,1.46
2022-11-26T03:11:44.686Z,1.20
2022-11-26T03:14:12.090Z,1.08
2022-11-26T03:16:39.245Z,1.27
2022-11-26T03:19:06.496Z,1.41
2022-11-26T03:21:34.278Z,1.36
2022-11-26T03:24:01.497Z,1.31
2022-11-26T03:26:28.606Z,1.24
2022-11-26T03:28:55.744Z,1.11
2022-11-26T03:31:22.978Z,0.97
2022-11-26T03:33:50.207Z,0.91
2022-11-26T03:36:17.352Z,0.98
2022-11-26T03:38:44.525Z,1.01
2022-11-26T03:41:11.661Z,1.15
2022-11-26T03:43:38.832Z,1.22
2022-11-26T03:46:06.093Z,1.24
2022-11-26T03:48:33.346Z,1.33
2022-11-26T03:51:00.565Z,1.02
2022-11-26T03:53:27.937Z,1.15
2022-11-26T03:55:55.077Z,1.05
2022-11-26T03:58:22.279Z,1.07
2022-11-26T04:00:49.776Z,1.14
2022-11-26T04:03:17.017Z,1.20
2022-11-26T04:05:44.325Z,1.21
2022-11-26T04:08:11.696Z,1.09
2022-11-26T04:10:38.825Z,0.80
2022-11-26T04:13:06.066Z,0.61
2022-11-26T04:15:34.377Z,0.58
2022-11-26T04:18:01.644Z,0.76
2022-11-26T04:20:29.003Z,0.97
2022-11-26T04:22:56.219Z,1.01
2022-11-26T04:25:23.460Z,1.04
2022-11-26T04:27:52.516Z,0.80
2022-11-26T04:30:19.865Z,0.66
2022-11-26T04:32:47.056Z,0.73
2022-11-26T04:35:14.220Z,0.66
2022-11-26T04:37:42.000Z,0.80
2022-11-26T04:40:10.465Z,0.86
2022-11-26T04:42:37.680Z,0.82
2022-11-26T04:45:05.881Z,0.88
2022-11-26T04:47:33.188Z,0.73
2022-11-26T04:50:00.529Z,0.69
2022-11-26T04:52:27.915Z,0.54
2022-11-26T04:54:55.096Z,0.64
2022-11-26T04:57:22.268Z,0.64
2022-11-26T04:59:53.875Z,0.77
2022-11-26T05:02:21.237Z,0.68
2022-11-26T05:04:48.677Z,0.53
2022-11-26T05:07:15.953Z,0.66
2022-11-26T05:09:43.442Z,0.67
2022-11-26T05:12:12.526Z,0.69
2022-11-26T05:14:40.125Z,0.63
2022-11-26T05:17:07.637Z,0.62
2022-11-26T05:19:34.756Z,0.69
2022-11-26T05:22:02.046Z,0.53
2022-11-26T05:24:30.201Z,0.43
2022-11-26T05:26:57.551Z,0.29
2022-11-26T05:29:25.945Z,0.18
2022-11-26T05:31:53.447Z,0.14
2022-11-26T05:34:21.144Z,0.02
2022-11-26T05:36:48.562Z,0.01
2022-11-26T05:39:16.564Z,-0.07
2022-11-26T05:41:43.782Z,-0.22
2022-11-26T05:44:11.192Z,-0.36
2022-11-26T05:46:42.593Z,-0.35
2022-11-26T05:49:10.406Z,-0.40
2022-11-26T05:51:37.612Z,-0.33
2022-11-26T05:54:05.032Z,-0.30
2022-11-26T05:56:32.188Z,-0.17
2022-11-26T05:58:59.321Z,-0.16
2022-11-26T06:01:26.482Z,-0.22
2022-11-26T06:03:53.699Z,-0.11
2022-11-26T06:06:20.974Z,-0.11
2022-11-26T06:08:48.224Z,-0.16
2022-11-26T06:11:15.514Z,-0.39
2022-11-26T06:13:42.700Z,-0.43
2022-11-26T06:16:10.332Z,-0.41
2022-11-26T06:18:38.657Z,-0.33
2022-11-26T06:21:08.004Z,-0.30
2022-11-26T06:23:35.400Z,-0.36
2022-11-26T06:26:12.514Z,-0.31
2022-11-26T06:28:40.188Z,-0.43
2022-11-26T06:31:10.272Z,-0.24
2022-11-26T06:33:37.986Z,-0.24
2022-11-26T06:36:06.367Z,-0.44
2022-11-26T06:38:33.810Z,-0.60
2022-11-26T06:41:08.062Z,-0.68
2022-11-26T06:43:35.948Z,-0.56
2022-11-26T06:46:11.000Z,-0.82
2022-11-26T06:48:39.710Z,-0.92
2022-11-26T06:51:13.081Z,-0.93
2022-11-26T06:53:40.799Z,-0.95
2022-11-26T06:56:18.152Z,-0.92
2022-11-26T06:58:48.060Z,-0.66
2022-11-26T07:01:19.915Z,-0.73
2022-11-26T07:03:47.411Z,-0.66
2022-11-26T07:06:22.133Z,-0.65
2022-11-26T07:08:51.292Z,-0.47
2022-11-26T07:11:19.952Z,-0.43
2022-11-26T07:13:47.504Z,-0.26
2022-11-26T07:16:15.099Z,-0.23
2022-11-26T07:18:43.041Z,-0.08
2022-11-26T07:21:13.015Z,-0.03
2022-11-26T07:23:41.280Z,0.03
2022-11-26T07:26:10.900Z,-0.03
2022-11-26T07:28:38.416Z,-0.19
2022-11-26T07:31:16.932Z,-0.20
2022-11-26T07:33:46.707Z,-0.09
2022-11-26T07:36:27.446Z,-0.04
2022-11-26T07:39:00.084Z,0.05
2022-11-26T07:41:29.207Z,0.06
2022-11-26T07:43:56.745Z,0.19
2022-11-26T07:46:26.042Z,0.32
2022-11-26T07:48:55.951Z,0.42
2022-11-26T07:51:30.549Z,0.60
2022-11-26T07:54:04.327Z,0.64
2022-11-26T07:56:31.697Z,0.67
2022-11-26T07:58:58.856Z,0.69
2022-11-26T08:01:29.661Z,0.71
2022-11-26T08:03:59.693Z,0.85
2022-11-26T08:06:30.534Z,0.94
2022-11-26T08:09:02.114Z,1.06
2022-11-26T08:11:33.449Z,1.14
2022-11-26T08:14:06.177Z,1.26
2022-11-26T08:16:34.457Z,1.39
2022-11-26T08:19:10.952Z,1.53
2022-11-26T08:21:39.485Z,1.81
2022-11-26T08:24:13.701Z,2.02
2022-11-26T08:26:44.084Z,1.90
2022-11-26T08:29:13.691Z,1.82
2022-11-26T08:31:45.809Z,1.91
2022-11-26T08:34:16.603Z,1.99
2022-11-26T08:36:45.476Z,2.11
2022-11-26T08:39:18.097Z,2.14
2022-11-26T08:41:51.707Z,2.19
2022-11-26T08:44:20.499Z,2.21
2022-11-26T08:46:48.064Z,2.16
2022-11-26T08:49:16.794Z,2.12
2022-11-26T08:51:44.530Z,2.44
2022-11-26T08:54:11.928Z,2.81
2022-11-26T08:56:39.199Z,2.86
2022-11-26T08:59:06.494Z,3.04
2022-11-26T09:01:34.740Z,3.20
2022-11-26T09:04:04.595Z,3.31
2022-11-26T09:06:36.665Z,3.43
2022-11-26T09:09:15.458Z,3.57
2022-11-26T09:11:50.451Z,3.94
2022-11-26T09:14:24.734Z,4.07
2022-11-26T09:16:54.236Z,4.24
2022-11-26T09:19:22.366Z,4.23
2022-11-26T09:21:49.612Z,4.28
2022-11-26T09:24:17.862Z,4.42
2022-11-26T09:26:45.802Z,4.61
2022-11-26T09:29:17.459Z,4.95
2022-11-26T09:32:15.412Z,4.94
2022-11-26T09:34:33.590Z,5.14
2022-11-26T09:37:00.889Z,5.26
2022-11-26T09:39:28.483Z,5.28
2022-11-26T09:42:05.763Z,5.39
2022-11-26T09:45:10.240Z,5.44
2022-11-26T09:47:45.546Z,5.24
2022-11-26T09:50:15.552Z,5.37
2022-11-26T09:53:26.468Z,5.50
2022-11-26T09:55:56.719Z,5.53
2022-11-26T09:58:50.857Z,5.73
2022-11-26T10:01:23.217Z,5.86
2022-11-26T10:03:52.353Z,6.05
2022-11-26T10:07:01.756Z,6.19
2022-11-26T10:09:43.444Z,6.12
2022-11-26T10:13:19.485Z,6.18
2022-11-26T10:16:15.210Z,6.27
2022-11-26T10:19:27.637Z,6.66
2022-11-26T10:22:01.024Z,6.80
2022-11-26T10:24:42.408Z,6.83
2022-11-26T10:27:23.762Z,6.73
2022-11-26T10:30:13.330Z,6.83
2022-11-26T10:32:44.040Z,6.97
2022-11-26T10:35:22.789Z,7.02
2022-11-26T10:37:51.061Z,7.21
2022-11-26T10:40:44.753Z,7.47
2022-11-26T10:43:24.470Z,8.20
2022-11-26T10:45:55.769Z,7.91
2022-11-26T10:48:28.619Z,7.75
2022-11-26T10:51:23.815Z,8.02
2022-11-26T10:54:04.593Z,7.67
2022-11-26T10:56:46.184Z,7.49
2022-11-26T10:59:28.337Z,7.67
2022-11-26T11:02:02.710Z,7.78
2022-11-26T11:04:40.443Z,7.83
2022-11-26T11:07:38.059Z,7.90
2022-11-26T11:10:21.936Z,8.14
2022-11-26T11:13:12.244Z,8.34
2022-11-26T11:15:41.091Z,8.34
2022-11-26T11:18:20.193Z,8.33
2022-11-26T11:21:03.068Z,8.30
2022-11-26T11:24:07.074Z,8.56
2022-11-26T11:26:25.800Z,8.60
2022-11-26T11:28:55.454Z,8.60
2022-11-26T11:31:26.792Z,8.59
2022-11-26T11:34:20.078Z,8.73
2022-11-26T11:37:14.851Z,9.14
2022-11-26T11:39:43.731Z,9.09
2022-11-26T11:42:29.117Z,9.04
2022-11-26T11:44:58.212Z,9.32
2022-11-26T11:47:48.713Z,9.36
2022-11-26T11:50:42.560Z,9.45
2022-11-26T11:53:40.902Z,9.88
2022-11-26T11:56:49.948Z,9.54
2022-11-26T12:00:10.476Z,9.49
2022-11-26T12:03:30.579Z,9.50
2022-11-26T12:06:24.451Z,9.61
2022-11-26T12:09:16.256Z,10.11
2022-11-26T12:12:22.742Z,10.02
2022-11-26T12:15:06.769Z,9.97
2022-11-26T12:17:51.673Z,10.11
2022-11-26T12:21:05.736Z,10.24
2022-11-26T12:24:02.243Z,10.17
2022-11-26T12:26:55.330Z,10.19
2022-11-26T12:29:44.873Z,10.19
2022-11-26T12:32:19.125Z,10.24
2022-11-26T12:34:57.260Z,10.32
2022-11-26T12:37:36.942Z,10.26
2022-11-26T12:40:30.595Z,10.41
2022-11-26T12:44:02.892Z,10.92
2022-11-26T12:46:54.415Z,11.04
2022-11-26T12:49:35.659Z,10.99
2022-11-26T12:52:38.672Z,10.99
2022-11-26T12:55:43.314Z,11.14
2022-11-26T12:58:27.398Z,11.10
2022-11-26T13:00:55.569Z,10.94
2022-11-26T13:03:33.506Z,11.01
2022-11-26T13:06:15.801Z,11.19
2022-11-26T13:09:53.401Z,11.35
2022-11-26T13:12:36.241Z,11.14
2022-11-26T13:15:37.608Z,11.05
2022-11-26T13:18:12.931Z,11.17
2022-11-26T13:20:55.007Z,11.26
2022-11-26T13:24:07.674Z,11.40
2022-11-26T13:27:12.954Z,11.25
2022-11-26T13:30:13.914Z,11.19
2022-11-26T13:33:23.185Z,11.30
2022-11-26T13:36:29.172Z,11.28
2022-11-26T13:39:49.927Z,11.27
2022-11-26T13:42:41.202Z,11.41
2022-11-26T13:45:39.325Z,11.44
2022-11-26T13:48:24.616Z,11.35
2022-11-26T13:51:19.114Z,11.39
2022-11-26T13:54:29.670Z,11.32
2022-11-26T13:57:08.872Z,11.25
2022-11-26T13:59:36.756Z,11.33
2022-11-26T14:02:38.001Z,11.27
2022-11-26T14:05:13.877Z,11.22
2022-11-26T14:07:43.264Z,11.20
2022-11-26T14:10:41.416Z,11.16
2022-11-26T14:13:09.996Z,11.28
2022-11-26T14:15:42.879Z,11.37
2022-11-26T14:18:16.168Z,11.41
2022-11-26T14:21:01.203Z,11.43
2022-11-26T14:23:47.414Z,11.41
2022-11-26T14:26:39.004Z,11.30
2022-11-26T14:29:09.891Z,11.01
2022-11-26T14:31:58.460Z,10.97
2022-11-26T14:34:42.382Z,10.72
2022-11-26T14:37:22.323Z,10.64
2022-11-26T14:40:27.624Z,10.60
2022-11-26T14:43:22.202Z,10.54
2022-11-26T14:46:17.741Z,10.56
2022-11-26T14:48:48.851Z,10.39
2022-11-26T14:51:26.653Z,10.24
2022-11-26T14:53:55.352Z,10.30
2022-11-26T14:56:25.292Z,10.32
2022-11-26T14:59:00.447Z,10.30
2022-11-26T15:01:29.361Z,10.16
2022-11-26T15:04:07.028Z,10.08
2022-11-26T15:06:38.792Z,9.82
2022-11-26T15:09:27.024Z,9.82
2022-11-26T15:12:19.649Z,9.72
2022-11-26T15:14:55.129Z,9.65
2022-11-26T15:17:25.568Z,9.42
2022-11-26T15:19:54.885Z,9.23
2022-11-26T15:22:29.395Z,9.06
2022-11-26T15:24:57.613Z,8.85
2022-11-26T15:28:01.550Z,8.73
2022-11-26T15:30:32.283Z,8.63
2022-11-26T15:33:10.001Z,8.42
2022-11-26T15:35:39.820Z,8.39
2022-11-26T15:38:16.363Z,8.37
2022-11-26T15:40:56.796Z,8.24
2022-11-26T15:43:35.524Z,8.15
2022-11-26T15:46:30.871Z,7.82
2022-11-26T15:49:04.513Z,7.65
2022-11-26T15:52:04.675Z,7.54
2022-11-26T15:55:10.592Z,7.51
2022-11-26T15:57:35.626Z,7.59
2022-11-26T16:00:20.491Z,7.56
2022-11-26T16:02:47.742Z,7.40
2022-11-26T16:05:39.357Z,7.27
2022-11-26T16:08:32.830Z,7.17
2022-11-26T16:11:20.948Z,7.02
2022-11-26T16:13:48.288Z,6.91
2022-11-26T16:16:27.530Z,6.95
2022-11-26T16:19:01.716Z,6.80
2022-11-26T16:21:33.835Z,6.66
2022-11-26T16:24:19.798Z,6.84
2022-11-26T16:27:24.883Z,6.84
2022-11-26T16:29:52.591Z,6.68
2022-11-26T16:32:20.241Z,6.46
2022-11-26T16:34:47.409Z,6.37
2022-11-26T16:37:27.265Z,6.35
2022-11-26T16:40:20.142Z,6.21
2022-11-26T16:42:48.676Z,6.06
2022-11-26T16:45:16.724Z,5.98
2022-11-26T16:47:54.554Z,5.94
2022-11-26T16:50:27.563Z,5.83
2022-11-26T16:52:55.931Z,5.73
2022-11-26T16:55:26.679Z,5.61
2022-11-26T16:57:58.325Z,5.55
2022-11-26T17:00:27.230Z,5.41
2022-11-26T17:02:54.954Z,5.41
2022-11-26T17:05:24.539Z,5.36
2022-11-26T17:07:59.479Z,5.31
2022-11-26T17:10:29.830Z,5.33
2022-11-26T17:12:57.607Z,5.27
2022-11-26T17:15:24.947Z,5.27
2022-11-26T17:18:03.555Z,5.22
2022-11-26T17:20:31.236Z,5.11
2022-11-26T17:22:58.404Z,5.07
2022-11-26T17:25:25.732Z,5.03
2022-11-26T17:27:53.003Z,4.94
2022-11-26T17:30:24.050Z,4.83
2022-11-26T17:32:51.836Z,4.77
2022-11-26T17:35:19.506Z,4.75
2022-11-26T17:37:46.950Z,4.63
2022-11-26T17:40:23.753Z,4.53
2022-11-26T17:42:51.291Z,4.44
2022-11-26T17:45:19.572Z,4.40
2022-11-26T17:47:47.005Z,4.36
2022-11-26T17:50:28.928Z,4.32
2022-11-26T17:52:56.273Z,4.21
2022-11-26T17:55:26.808Z,4.18
2022-11-26T17:57:55.254Z,4.18
2022-11-26T18:00:31.181Z,4.15
2022-11-26T18:02:58.950Z,4.13
2022-11-26T18:05:26.312Z,4.09
2022-11-26T18:07:53.671Z,4.09
2022-11-26T18:10:23.279Z,4.01
2022-11-26T18:12:54.162Z,4.04
2022-11-26T18:15:25.835Z,3.98
2022-11-26T18:17:55.394Z,4.00
2022-11-26T18:20:28.758Z,4.02
2022-11-26T18:22:59.403Z,4.00
2022-11-26T18:25:28.490Z,3.98
2022-11-26T18:27:56.050Z,3.93
2022-11-26T18:30:24.642Z,3.91
2022-11-26T18:32:51.936Z,3.95
2022-11-26T18:35:19.279Z,3.96
2022-11-26T18:37:46.481Z,3.89
2022-11-26T18:40:17.723Z,3.83
2022-11-26T18:42:45.195Z,3.85
2022-11-26T18:45:15.619Z,3.86
2022-11-26T18:47:43.411Z,3.85
2022-11-26T18:50:11.483Z,3.87
2022-11-26T18:52:38.807Z,3.83
2022-11-26T18:55:08.583Z,3.82
2022-11-26T18:57:36.546Z,3.73
2022-11-26T19:00:06.852Z,3.68
2022-11-26T19:02:36.268Z,3.65
2022-11-26T19:05:04.681Z,3.59
2022-11-26T19:07:33.117Z,3.55
2022-11-26T19:10:00.414Z,3.51
2022-11-26T19:12:27.562Z,3.47
2022-11-26T19:14:54.810Z,3.46
2022-11-26T19:17:21.966Z,3.38
2022-11-26T19:19:49.110Z,3.37
2022-11-26T19:22:16.379Z,3.34
2022-11-26T19:24:43.635Z,3.30
2022-11-26T19:27:10.867Z,3.26
2022-11-26T19:29:38.330Z,3.21
2022-11-26T19:32:05.787Z,3.23
2022-11-26T19:34:33.033Z,3.21
2022-11-26T19:37:00.255Z,3.19
2022-11-26T19:39:27.658Z,3.17
2022-11-26T19:41:55.268Z,3.13
2022-11-26T19:44:22.636Z,3.07
2022-11-26T19:46:49.772Z,3.08
2022-11-26T19:49:17.065Z,3.09
2022-11-26T19:51:45.279Z,3.08
2022-11-26T19:54:12.496Z,3.14
2022-11-26T19:56:40.189Z,3.12
2022-11-26T19:59:07.352Z,3.09
2022-11-26T20:01:35.473Z,3.05
2022-11-26T20:04:07.423Z,3.03
2022-11-26T20:06:36.171Z,3.01
2022-11-26T20:09:09.321Z,2.95
2022-11-26T20:11:39.584Z,2.91
2022-11-26T20:14:10.980Z,2.82
2022-11-26T20:16:41.752Z,2.78
2022-11-26T20:19:11.260Z,2.72
2022-11-26T20:21:39.246Z,2.76
2022-11-26T20:24:17.739Z,2.72
2022-11-26T20:26:48.449Z,2.65
2022-11-26T20:29:17.459Z,2.61
2022-11-26T20:31:48.889Z,2.55
2022-11-26T20:34:26.245Z,2.52
2022-11-26T20:36:53.553Z,2.54
2022-11-26T20:39:23.481Z,2.61
2022-11-26T20:41:51.092Z,2.58
2022-11-26T20:44:18.572Z,2.56
2022-11-26T20:46:46.860Z,2.55
2022-11-26T20:49:15.966Z,2.56
2022-11-26T20:51:43.207Z,2.58
2022-11-26T20:54:10.372Z,2.56
2022-11-26T20:56:37.742Z,2.56
2022-11-26T20:59:04.993Z,2.59
2022-11-26T21:01:32.510Z,2.65
2022-11-26T21:04:00.098Z,2.61
2022-11-26T21:06:30.367Z,2.60
2022-11-26T21:09:02.215Z,2.65
2022-11-26T21:11:30.406Z,2.73
2022-11-26T21:14:01.270Z,2.68
2022-11-26T21:16:29.181Z,2.59
2022-11-26T21:18:57.553Z,2.64
2022-11-26T21:21:27.512Z,2.66
2022-11-26T21:23:56.841Z,2.61
2022-11-26T21:26:26.666Z,2.59
2022-11-26T21:28:57.848Z,2.51
2022-11-26T21:31:27.441Z,2.49
2022-11-26T21:34:02.239Z,2.47
2022-11-26T21:36:33.179Z,2.46
2022-11-26T21:39:00.896Z,2.48
2022-11-26T21:41:28.847Z,2.49
2022-11-26T21:43:56.061Z,2.55
2022-11-26T21:46:27.023Z,2.53
2022-11-26T21:48:56.538Z,2.64
2022-11-26T21:51:27.951Z,2.71
2022-11-26T21:53:57.709Z,2.74
2022-11-26T21:56:29.904Z,2.68
2022-11-26T21:58:59.830Z,2.67
2022-11-26T22:01:37.839Z,2.70
2022-11-26T22:04:14.715Z,2.62
2022-11-26T22:06:43.957Z,2.56
2022-11-26T22:09:12.653Z,2.54
2022-11-26T22:11:43.910Z,2.64
2022-11-26T22:14:15.861Z,2.61
2022-11-26T22:16:43.321Z,2.57
2022-11-26T22:19:10.596Z,2.64
2022-11-26T22:21:42.008Z,2.71
2022-11-26T22:24:15.887Z,2.78
2022-11-26T22:26:44.796Z,2.76
2022-11-26T22:29:18.517Z,2.79
2022-11-26T22:31:48.141Z,2.68
2022-11-26T22:34:21.949Z,2.49
2022-11-26T22:36:49.346Z,2.40
2022-11-26T22:39:18.863Z,2.53
2022-11-26T22:41:48.041Z,2.51
2022-11-26T22:44:16.038Z,2.42
2022-11-26T22:46:43.821Z,2.31
2022-11-26T22:49:18.749Z,2.39
2022-11-26T22:51:47.327Z,2.31
2022-11-26T22:54:16.440Z,2.27
2022-11-26T22:56:43.994Z,2.33
2022-11-26T22:59:14.466Z,2.19
2022-11-26T23:01:42.111Z,2.12
2022-11-26T23:04:11.014Z,2.19
2022-11-26T23:06:39.413Z,2.35
2022-11-26T23:09:09.017Z,2.50
2022-11-26T23:11:40.426Z,2.45
2022-11-26T23:14:09.679Z,2.42
2022-11-26T23:16:40.359Z,2.29
2022-11-26T23:19:08.256Z,2.22
2022-11-26T23:21:39.942Z,2.22
2022-11-26T23:24:07.888Z,2.21
2022-11-26T23:26:38.475Z,2.22
2022-11-26T23:29:07.228Z,2.30
2022-11-26T23:31:42.155Z,2.42
2022-11-26T23:34:10.404Z,2.43
2022-11-26T23:36:38.682Z,2.45
2022-11-26T23:39:11.291Z,2.42
2022-11-26T23:41:38.525Z,2.36
2022-11-26T23:44:05.841Z,2.34
2022-11-26T23:46:35.386Z,2.30
2022-11-26T23:49:04.075Z,2.34
2022-11-26T23:51:33.099Z,2.34
2022-11-26T23:54:00.758Z,2.34
2022-11-26T23:56:34.129Z,2.26
2022-11-26T23:59:04.688Z,2.14
